sensor_id;sensor_type;location;lat;lon;timestamp;pressure;altitude;pressure_sealevel;temperature
72405;BMP280;60395;52.020;113.548;2022-07-03T00:00:22;91495.75;;;29.31
72405;BMP280;60395;52.020;113.548;2022-07-03T00:03:25;91500.88;;;32.66
72405;BMP280;60395;52.020;113.548;2022-07-03T00:06:28;91506.59;;;35.74
72405;BMP280;60395;52.020;113.548;2022-07-03T00:09:33;91496.00;;;36.44
72405;BMP280;60395;52.020;113.548;2022-07-03T00:12:36;91500.75;;;35.13
72405;BMP280;60395;52.020;113.548;2022-07-03T00:15:39;91492.91;;;35.70
72405;BMP280;60395;52.020;113.548;2022-07-03T00:18:43;91494.66;;;37.28
72405;BMP280;60395;52.020;113.548;2022-07-03T00:21:57;91499.41;;;37.97
72405;BMP280;60395;52.020;113.548;2022-07-03T00:25:05;91499.09;;;37.90
72405;BMP280;60395;52.020;113.548;2022-07-03T00:28:09;91504.28;;;37.92
72405;BMP280;60395;52.020;113.548;2022-07-03T00:31:13;91507.31;;;37.99
72405;BMP280;60395;52.020;113.548;2022-07-03T00:34:17;91508.78;;;38.98
72405;BMP280;60395;52.020;113.548;2022-07-03T00:37:21;91509.13;;;39.61
72405;BMP280;60395;52.020;113.548;2022-07-03T00:40:24;91512.16;;;39.64
72405;BMP280;60395;52.020;113.548;2022-07-03T00:43:27;91508.16;;;39.72
72405;BMP280;60395;52.020;113.548;2022-07-03T00:46:30;91504.97;;;39.40
72405;BMP280;60395;52.020;113.548;2022-07-03T00:49:35;91493.81;;;39.01
72405;BMP280;60395;52.020;113.548;2022-07-03T00:52:38;91491.19;;;38.20
72405;BMP280;60395;52.020;113.548;2022-07-03T00:55:48;91498.13;;;37.60
72405;BMP280;60395;52.020;113.548;2022-07-03T00:58:54;91503.09;;;37.08
72405;BMP280;60395;52.020;113.548;2022-07-03T01:02:05;91508.94;;;36.72
72405;BMP280;60395;52.020;113.548;2022-07-03T01:05:20;91516.13;;;35.55
72405;BMP280;60395;52.020;113.548;2022-07-03T01:08:48;91515.00;;;34.13
72405;BMP280;60395;52.020;113.548;2022-07-03T01:12:04;91509.16;;;32.86
72405;BMP280;60395;52.020;113.548;2022-07-03T01:18:58;91497.88;;;31.16
72405;BMP280;60395;52.020;113.548;2022-07-03T01:22:34;91495.81;;;30.87
72405;BMP280;60395;52.020;113.548;2022-07-03T01:25:49;91505.38;;;30.36
72405;BMP280;60395;52.020;113.548;2022-07-03T01:28:53;91505.25;;;29.96
72405;BMP280;60395;52.020;113.548;2022-07-03T01:31:58;91504.00;;;29.77
72405;BMP280;60395;52.020;113.548;2022-07-03T01:35:02;91499.75;;;29.50
72405;BMP280;60395;52.020;113.548;2022-07-03T01:38:13;91506.06;;;29.59
72405;BMP280;60395;52.020;113.548;2022-07-03T01:41:16;91507.06;;;29.62
72405;BMP280;60395;52.020;113.548;2022-07-03T01:44:20;91510.81;;;29.65
72405;BMP280;60395;52.020;113.548;2022-07-03T01:47:24;91515.81;;;29.63
72405;BMP280;60395;52.020;113.548;2022-07-03T01:50:30;91524.00;;;29.74
72405;BMP280;60395;52.020;113.548;2022-07-03T01:53:35;91523.50;;;29.84
72405;BMP280;60395;52.020;113.548;2022-07-03T01:56:39;91521.66;;;29.83
72405;BMP280;60395;52.020;113.548;2022-07-03T01:59:42;91527.59;;;30.08
72405;BMP280;60395;52.020;113.548;2022-07-03T02:03:03;91536.34;;;30.26
72405;BMP280;60395;52.020;113.548;2022-07-03T02:06:09;91528.56;;;30.28
72405;BMP280;60395;52.020;113.548;2022-07-03T02:09:17;91534.22;;;30.44
72405;BMP280;60395;52.020;113.548;2022-07-03T02:12:39;91540.88;;;30.73
72405;BMP280;60395;52.020;113.548;2022-07-03T02:15:45;91541.22;;;30.65
72405;BMP280;60395;52.020;113.548;2022-07-03T02:18:58;91541.16;;;30.54
72405;BMP280;60395;52.020;113.548;2022-07-03T02:22:02;91527.41;;;30.67
72405;BMP280;60395;52.020;113.548;2022-07-03T02:25:22;91526.31;;;30.99
72405;BMP280;60395;52.020;113.548;2022-07-03T02:32:21;91530.31;;;31.33
72405;BMP280;60395;52.020;113.548;2022-07-03T02:35:29;91525.41;;;31.40
72405;BMP280;60395;52.020;113.548;2022-07-03T02:38:32;91526.88;;;31.50
72405;BMP280;60395;52.020;113.548;2022-07-03T02:41:53;91527.13;;;31.70
72405;BMP280;60395;52.020;113.548;2022-07-03T02:45:03;91530.09;;;31.57
72405;BMP280;60395;52.020;113.548;2022-07-03T02:48:24;91529.25;;;31.70
72405;BMP280;60395;52.020;113.548;2022-07-03T02:51:35;91531.56;;;31.89
72405;BMP280;60395;52.020;113.548;2022-07-03T02:54:44;91531.91;;;32.03
72405;BMP280;60395;52.020;113.548;2022-07-03T03:04:38;91520.66;;;32.23
72405;BMP280;60395;52.020;113.548;2022-07-03T03:11:41;91514.44;;;32.40
72405;BMP280;60395;52.020;113.548;2022-07-03T03:14:43;91518.06;;;32.16
72405;BMP280;60395;52.020;113.548;2022-07-03T03:17:50;91518.59;;;32.12
72405;BMP280;60395;52.020;113.548;2022-07-03T03:20:58;91511.78;;;32.18
72405;BMP280;60395;52.020;113.548;2022-07-03T03:24:02;91514.97;;;32.25
72405;BMP280;60395;52.020;113.548;2022-07-03T03:27:05;91517.53;;;32.31
72405;BMP280;60395;52.020;113.548;2022-07-03T03:30:08;91526.31;;;32.69
72405;BMP280;60395;52.020;113.548;2022-07-03T03:33:12;91513.50;;;32.52
72405;BMP280;60395;52.020;113.548;2022-07-03T03:36:17;91518.00;;;32.49
72405;BMP280;60395;52.020;113.548;2022-07-03T03:39:21;91508.69;;;32.53
72405;BMP280;60395;52.020;113.548;2022-07-03T03:42:24;91504.59;;;32.58
72405;BMP280;60395;52.020;113.548;2022-07-03T03:45:28;91506.69;;;32.58
72405;BMP280;60395;52.020;113.548;2022-07-03T03:48:34;91505.31;;;32.63
72405;BMP280;60395;52.020;113.548;2022-07-03T03:51:38;91507.75;;;32.76
72405;BMP280;60395;52.020;113.548;2022-07-03T03:54:42;91500.75;;;32.88
72405;BMP280;60395;52.020;113.548;2022-07-03T03:57:45;91499.63;;;32.92
72405;BMP280;60395;52.020;113.548;2022-07-03T04:00:48;91497.59;;;32.97
72405;BMP280;60395;52.020;113.548;2022-07-03T04:03:52;91501.75;;;33.07
72405;BMP280;60395;52.020;113.548;2022-07-03T04:06:55;91506.66;;;32.95
72405;BMP280;60395;52.020;113.548;2022-07-03T04:09:58;91500.91;;;32.82
72405;BMP280;60395;52.020;113.548;2022-07-03T04:13:01;91506.31;;;32.66
72405;BMP280;60395;52.020;113.548;2022-07-03T04:16:04;91504.09;;;32.62
72405;BMP280;60395;52.020;113.548;2022-07-03T04:19:07;91505.22;;;32.59
72405;BMP280;60395;52.020;113.548;2022-07-03T04:22:11;91512.03;;;32.53
72405;BMP280;60395;52.020;113.548;2022-07-03T04:25:14;91508.44;;;32.55
72405;BMP280;60395;52.020;113.548;2022-07-03T04:28:17;91508.56;;;32.59
72405;BMP280;60395;52.020;113.548;2022-07-03T04:31:22;91505.06;;;32.65
72405;BMP280;60395;52.020;113.548;2022-07-03T04:34:25;91513.78;;;32.77
72405;BMP280;60395;52.020;113.548;2022-07-03T04:37:28;91507.78;;;32.92
72405;BMP280;60395;52.020;113.548;2022-07-03T04:40:31;91500.53;;;33.06
72405;BMP280;60395;52.020;113.548;2022-07-03T04:43:35;91498.25;;;33.13
72405;BMP280;60395;52.020;113.548;2022-07-03T04:46:41;91494.56;;;33.10
72405;BMP280;60395;52.020;113.548;2022-07-03T04:49:44;91494.84;;;33.08
72405;BMP280;60395;52.020;113.548;2022-07-03T04:52:47;91483.50;;;33.01
72405;BMP280;60395;52.020;113.548;2022-07-03T04:55:50;91483.41;;;33.12
72405;BMP280;60395;52.020;113.548;2022-07-03T04:58:53;91487.50;;;33.33
72405;BMP280;60395;52.020;113.548;2022-07-03T05:01:57;91476.59;;;33.49
72405;BMP280;60395;52.020;113.548;2022-07-03T05:05:00;91479.31;;;33.64
72405;BMP280;60395;52.020;113.548;2022-07-03T05:08:03;91482.19;;;33.73
72405;BMP280;60395;52.020;113.548;2022-07-03T05:11:07;91475.41;;;33.83
72405;BMP280;60395;52.020;113.548;2022-07-03T05:14:11;91476.63;;;34.00
72405;BMP280;60395;52.020;113.548;2022-07-03T05:17:17;91478.84;;;34.24
72405;BMP280;60395;52.020;113.548;2022-07-03T05:20:20;91472.03;;;34.14
72405;BMP280;60395;52.020;113.548;2022-07-03T05:23:32;91465.03;;;33.95
72405;BMP280;60395;52.020;113.548;2022-07-03T05:26:35;91470.47;;;33.95
72405;BMP280;60395;52.020;113.548;2022-07-03T05:29:38;91463.94;;;34.03
72405;BMP280;60395;52.020;113.548;2022-07-03T05:32:42;91456.72;;;34.06
72405;BMP280;60395;52.020;113.548;2022-07-03T05:35:45;91450.28;;;34.18
72405;BMP280;60395;52.020;113.548;2022-07-03T05:38:49;91443.94;;;34.40
72405;BMP280;60395;52.020;113.548;2022-07-03T05:42:10;91437.66;;;34.66
72405;BMP280;60395;52.020;113.548;2022-07-03T05:45:13;91435.66;;;34.96
72405;BMP280;60395;52.020;113.548;2022-07-03T05:48:16;91422.09;;;35.05
72405;BMP280;60395;52.020;113.548;2022-07-03T05:51:19;91417.81;;;35.01
72405;BMP280;60395;52.020;113.548;2022-07-03T05:54:23;91417.38;;;34.90
72405;BMP280;60395;52.020;113.548;2022-07-03T05:57:25;91417.63;;;34.88
72405;BMP280;60395;52.020;113.548;2022-07-03T06:00:34;91418.44;;;35.02
72405;BMP280;60395;52.020;113.548;2022-07-03T06:03:38;91410.88;;;35.31
72405;BMP280;60395;52.020;113.548;2022-07-03T06:06:42;91413.03;;;35.35
72405;BMP280;60395;52.020;113.548;2022-07-03T06:09:48;91408.72;;;35.27
72405;BMP280;60395;52.020;113.548;2022-07-03T06:12:53;91403.19;;;35.52
72405;BMP280;60395;52.020;113.548;2022-07-03T06:15:57;91400.38;;;35.43
72405;BMP280;60395;52.020;113.548;2022-07-03T06:19:00;91393.25;;;35.01
72405;BMP280;60395;52.020;113.548;2022-07-03T06:57:31;91477.38;;;29.56
72405;BMP280;60395;52.020;113.548;2022-07-03T07:00:35;91483.09;;;29.06
72405;BMP280;60395;52.020;113.548;2022-07-03T07:03:41;91480.06;;;28.66
72405;BMP280;60395;52.020;113.548;2022-07-03T07:06:44;91466.09;;;28.46
72405;BMP280;60395;52.020;113.548;2022-07-03T07:09:47;91462.97;;;28.13
72405;BMP280;60395;52.020;113.548;2022-07-03T07:12:51;91446.22;;;27.99
72405;BMP280;60395;52.020;113.548;2022-07-03T07:15:54;91443.59;;;28.23
72405;BMP280;60395;52.020;113.548;2022-07-03T07:18:57;91427.28;;;28.91
72405;BMP280;60395;52.020;113.548;2022-07-03T07:22:00;91434.50;;;29.58
72405;BMP280;60395;52.020;113.548;2022-07-03T07:25:04;91439.44;;;30.26
72405;BMP280;60395;52.020;113.548;2022-07-03T07:28:07;91439.97;;;30.84
72405;BMP280;60395;52.020;113.548;2022-07-03T07:31:10;91450.88;;;31.17
72405;BMP280;60395;52.020;113.548;2022-07-03T07:34:13;91448.91;;;31.44
72405;BMP280;60395;52.020;113.548;2022-07-03T07:37:17;91456.06;;;31.63
72405;BMP280;60395;52.020;113.548;2022-07-03T07:40:20;91450.88;;;31.72
72405;BMP280;60395;52.020;113.548;2022-07-03T07:43:23;91452.59;;;31.69
72405;BMP280;60395;52.020;113.548;2022-07-03T07:46:26;91450.53;;;31.48
72405;BMP280;60395;52.020;113.548;2022-07-03T07:49:30;91445.84;;;31.20
72405;BMP280;60395;52.020;113.548;2022-07-03T07:52:33;91441.88;;;31.19
72405;BMP280;60395;52.020;113.548;2022-07-03T07:55:36;91435.59;;;31.31
72405;BMP280;60395;52.020;113.548;2022-07-03T07:58:39;91429.94;;;31.44
72405;BMP280;60395;52.020;113.548;2022-07-03T08:01:42;91427.19;;;31.55
72405;BMP280;60395;52.020;113.548;2022-07-03T08:05:04;91429.81;;;31.62
72405;BMP280;60395;52.020;113.548;2022-07-03T08:08:30;91415.84;;;31.59
72405;BMP280;60395;52.020;113.548;2022-07-03T08:11:33;91411.53;;;31.56
72405;BMP280;60395;52.020;113.548;2022-07-03T08:14:36;91422.66;;;31.43
72405;BMP280;60395;52.020;113.548;2022-07-03T08:17:40;91432.38;;;31.46
72405;BMP280;60395;52.020;113.548;2022-07-03T08:20:43;91428.19;;;31.58
72405;BMP280;60395;52.020;113.548;2022-07-03T08:23:46;91430.28;;;31.58
72405;BMP280;60395;52.020;113.548;2022-07-03T08:26:49;91440.16;;;31.55
72405;BMP280;60395;52.020;113.548;2022-07-03T08:29:52;91430.28;;;31.58
72405;BMP280;60395;52.020;113.548;2022-07-03T08:32:57;91442.50;;;31.52
72405;BMP280;60395;52.020;113.548;2022-07-03T08:36:00;91438.56;;;31.29
72405;BMP280;60395;52.020;113.548;2022-07-03T08:39:03;91447.78;;;31.03
72405;BMP280;60395;52.020;113.548;2022-07-03T08:42:07;91447.41;;;30.90
72405;BMP280;60395;52.020;113.548;2022-07-03T08:45:19;91449.59;;;30.83
72405;BMP280;60395;52.020;113.548;2022-07-03T08:48:22;91449.50;;;30.89
72405;BMP280;60395;52.020;113.548;2022-07-03T08:51:27;91447.41;;;31.01
72405;BMP280;60395;52.020;113.548;2022-07-03T08:54:30;91456.19;;;31.13
72405;BMP280;60395;52.020;113.548;2022-07-03T08:57:35;91453.00;;;31.39
72405;BMP280;60395;52.020;113.548;2022-07-03T09:00:38;91440.16;;;31.33
72405;BMP280;60395;52.020;113.548;2022-07-03T09:03:42;91443.59;;;31.38
72405;BMP280;60395;52.020;113.548;2022-07-03T09:06:46;91439.31;;;31.45
72405;BMP280;60395;52.020;113.548;2022-07-03T09:09:54;91447.44;;;31.45
72405;BMP280;60395;52.020;113.548;2022-07-03T09:12:58;91446.81;;;31.45
72405;BMP280;60395;52.020;113.548;2022-07-03T09:16:01;91444.22;;;31.38
72405;BMP280;60395;52.020;113.548;2022-07-03T09:19:04;91456.22;;;31.24
72405;BMP280;60395;52.020;113.548;2022-07-03T09:22:25;91449.16;;;31.20
72405;BMP280;60395;52.020;113.548;2022-07-03T09:25:29;91462.47;;;31.11
72405;BMP280;60395;52.020;113.548;2022-07-03T09:28:59;91465.06;;;31.18
72405;BMP280;60395;52.020;113.548;2022-07-03T09:32:02;91471.59;;;31.14
72405;BMP280;60395;52.020;113.548;2022-07-03T09:35:19;91477.53;;;31.21
72405;BMP280;60395;52.020;113.548;2022-07-03T09:38:23;91481.97;;;31.18
72405;BMP280;60395;52.020;113.548;2022-07-03T09:41:26;91487.41;;;31.18
72405;BMP280;60395;52.020;113.548;2022-07-03T09:47:34;91475.31;;;31.28
72405;BMP280;60395;52.020;113.548;2022-07-03T09:50:43;91469.25;;;31.28
72405;BMP280;60395;52.020;113.548;2022-07-03T09:56:58;91475.78;;;31.24
72405;BMP280;60395;52.020;113.548;2022-07-03T10:03:20;91490.19;;;30.61
72405;BMP280;60395;52.020;113.548;2022-07-03T10:06:23;91493.94;;;30.00
72405;BMP280;60395;52.020;113.548;2022-07-03T10:09:29;91500.75;;;29.53
72405;BMP280;60395;52.020;113.548;2022-07-03T10:12:33;91501.56;;;29.10
72405;BMP280;60395;52.020;113.548;2022-07-03T10:15:37;91514.72;;;28.76
72405;BMP280;60395;52.020;113.548;2022-07-03T10:18:41;91534.22;;;28.46
72405;BMP280;60395;52.020;113.548;2022-07-03T10:21:54;91536.22;;;28.28
72405;BMP280;60395;52.020;113.548;2022-07-03T10:24:59;91516.16;;;28.07
72405;BMP280;60395;52.020;113.548;2022-07-03T10:28:04;91496.09;;;27.93
72405;BMP280;60395;52.020;113.548;2022-07-03T10:31:08;91493.44;;;27.80
72405;BMP280;60395;52.020;113.548;2022-07-03T10:34:15;91489.06;;;27.77
72405;BMP280;60395;52.020;113.548;2022-07-03T10:37:19;91483.06;;;27.70
72405;BMP280;60395;52.020;113.548;2022-07-03T10:40:56;91478.53;;;27.62
72405;BMP280;60395;52.020;113.548;2022-07-03T10:44:19;91480.69;;;27.35
72405;BMP280;60395;52.020;113.548;2022-07-03T10:47:45;91496.88;;;27.22
72405;BMP280;60395;52.020;113.548;2022-07-03T10:51:11;91497.50;;;27.09
72405;BMP280;60395;52.020;113.548;2022-07-03T10:54:22;91521.34;;;26.94
72405;BMP280;60395;52.020;113.548;2022-07-03T10:57:25;91552.22;;;26.75
72405;BMP280;60395;52.020;113.548;2022-07-03T11:00:28;91595.06;;;26.58
72405;BMP280;60395;52.020;113.548;2022-07-03T11:13:18;91577.03;;;25.39
72405;BMP280;60395;52.020;113.548;2022-07-03T11:16:23;91578.09;;;25.14
72405;BMP280;60395;52.020;113.548;2022-07-03T11:19:33;91566.88;;;24.83
72405;BMP280;60395;52.020;113.548;2022-07-03T11:22:53;91563.16;;;24.65
72405;BMP280;60395;52.020;113.548;2022-07-03T11:26:19;91566.81;;;24.40
72405;BMP280;60395;52.020;113.548;2022-07-03T11:29:28;91591.84;;;24.30
72405;BMP280;60395;52.020;113.548;2022-07-03T11:32:50;91614.69;;;24.22
72405;BMP280;60395;52.020;113.548;2022-07-03T11:35:53;91614.59;;;24.31
72405;BMP280;60395;52.020;113.548;2022-07-03T11:42:03;91642.41;;;24.27
72405;BMP280;60395;52.020;113.548;2022-07-03T11:45:07;91659.94;;;24.26
72405;BMP280;60395;52.020;113.548;2022-07-03T11:48:15;91677.66;;;24.23
72405;BMP280;60395;52.020;113.548;2022-07-03T11:51:18;91669.50;;;24.02
72405;BMP280;60395;52.020;113.548;2022-07-03T11:54:21;91669.56;;;23.78
72405;BMP280;60395;52.020;113.548;2022-07-03T11:57:24;91665.06;;;23.53
72405;BMP280;60395;52.020;113.548;2022-07-03T12:00:29;91669.63;;;23.31
72405;BMP280;60395;52.020;113.548;2022-07-03T12:03:33;91674.72;;;23.17
72405;BMP280;60395;52.020;113.548;2022-07-03T12:09:50;91664.97;;;23.14
72405;BMP280;60395;52.020;113.548;2022-07-03T12:12:53;91659.63;;;22.82
72405;BMP280;60395;52.020;113.548;2022-07-03T12:19:06;91648.63;;;22.45
72405;BMP280;60395;52.020;113.548;2022-07-03T12:22:09;91650.66;;;22.44
72405;BMP280;60395;52.020;113.548;2022-07-03T12:25:13;91649.72;;;22.48
72405;BMP280;60395;52.020;113.548;2022-07-03T12:28:17;91655.72;;;22.40
72405;BMP280;60395;52.020;113.548;2022-07-03T12:31:20;91670.22;;;22.34
72405;BMP280;60395;52.020;113.548;2022-07-03T12:34:23;91679.16;;;22.48
72405;BMP280;60395;52.020;113.548;2022-07-03T12:37:42;91681.47;;;22.61
72405;BMP280;60395;52.020;113.548;2022-07-03T12:41:08;91697.00;;;22.75
72405;BMP280;60395;52.020;113.548;2022-07-03T12:44:11;91713.50;;;22.86
72405;BMP280;60395;52.020;113.548;2022-07-03T12:47:20;91712.53;;;22.90
72405;BMP280;60395;52.020;113.548;2022-07-03T12:50:23;91707.31;;;22.88
72405;BMP280;60395;52.020;113.548;2022-07-03T12:53:31;91698.66;;;22.87
72405;BMP280;60395;52.020;113.548;2022-07-03T12:56:35;91686.56;;;22.80
72405;BMP280;60395;52.020;113.548;2022-07-03T12:59:39;91665.53;;;22.76
72405;BMP280;60395;52.020;113.548;2022-07-03T13:02:42;91649.31;;;22.69
72405;BMP280;60395;52.020;113.548;2022-07-03T13:05:46;91640.22;;;22.58
72405;BMP280;60395;52.020;113.548;2022-07-03T13:11:54;91654.53;;;22.13
72405;BMP280;60395;52.020;113.548;2022-07-03T13:15:01;91651.72;;;22.07
72405;BMP280;60395;52.020;113.548;2022-07-03T13:18:04;91664.78;;;22.02
72405;BMP280;60395;52.020;113.548;2022-07-03T13:21:07;91644.19;;;21.92
72405;BMP280;60395;52.020;113.548;2022-07-03T13:24:12;91640.75;;;21.94
72405;BMP280;60395;52.020;113.548;2022-07-03T13:27:15;91639.47;;;21.93
72405;BMP280;60395;52.020;113.548;2022-07-03T13:30:19;91629.38;;;22.02
72405;BMP280;60395;52.020;113.548;2022-07-03T13:33:22;91632.66;;;22.11
72405;BMP280;60395;52.020;113.548;2022-07-03T13:36:26;91633.44;;;22.18
72405;BMP280;60395;52.020;113.548;2022-07-03T13:39:30;91625.84;;;22.29
72405;BMP280;60395;52.020;113.548;2022-07-03T13:42:33;91625.66;;;22.39
72405;BMP280;60395;52.020;113.548;2022-07-03T13:45:36;91635.28;;;22.36
72405;BMP280;60395;52.020;113.548;2022-07-03T13:48:39;91620.50;;;22.37
72405;BMP280;60395;52.020;113.548;2022-07-03T13:51:42;91624.44;;;22.30
72405;BMP280;60395;52.020;113.548;2022-07-03T13:54:45;91631.97;;;22.27
72405;BMP280;60395;52.020;113.548;2022-07-03T13:57:50;91635.63;;;22.24
72405;BMP280;60395;52.020;113.548;2022-07-03T14:00:54;91629.97;;;22.19
72405;BMP280;60395;52.020;113.548;2022-07-03T14:03:57;91627.03;;;22.15
72405;BMP280;60395;52.020;113.548;2022-07-03T14:07:00;91624.47;;;22.13
72405;BMP280;60395;52.020;113.548;2022-07-03T14:10:03;91622.13;;;22.09
72405;BMP280;60395;52.020;113.548;2022-07-03T14:13:07;91624.50;;;22.04
72405;BMP280;60395;52.020;113.548;2022-07-03T14:16:11;91621.69;;;21.98
72405;BMP280;60395;52.020;113.548;2022-07-03T14:19:15;91615.25;;;21.95
72405;BMP280;60395;52.020;113.548;2022-07-03T14:22:18;91619.34;;;21.94
72405;BMP280;60395;52.020;113.548;2022-07-03T14:25:21;91620.13;;;21.92
72405;BMP280;60395;52.020;113.548;2022-07-03T14:28:24;91622.47;;;21.96
72405;BMP280;60395;52.020;113.548;2022-07-03T14:31:55;91630.00;;;22.11
72405;BMP280;60395;52.020;113.548;2022-07-03T14:35:17;91637.03;;;22.23
72405;BMP280;60395;52.020;113.548;2022-07-03T14:38:20;91635.59;;;22.32
72405;BMP280;60395;52.020;113.548;2022-07-03T14:41:23;91619.53;;;22.32
72405;BMP280;60395;52.020;113.548;2022-07-03T14:44:26;91624.13;;;22.34
72405;BMP280;60395;52.020;113.548;2022-07-03T14:47:30;91607.13;;;22.29
72405;BMP280;60395;52.020;113.548;2022-07-03T14:50:33;91615.16;;;22.29
72405;BMP280;60395;52.020;113.548;2022-07-03T14:53:36;91616.59;;;22.19
72405;BMP280;60395;52.020;113.548;2022-07-03T14:56:53;91614.31;;;21.90
72405;BMP280;60395;52.020;113.548;2022-07-03T15:00:05;91615.31;;;21.60
72405;BMP280;60395;52.020;113.548;2022-07-03T15:06:21;91616.25;;;21.65
72405;BMP280;60395;52.020;113.548;2022-07-03T15:09:29;91618.75;;;21.67
72405;BMP280;60395;52.020;113.548;2022-07-03T15:12:41;91605.22;;;21.69
72405;BMP280;60395;52.020;113.548;2022-07-03T15:15:47;91603.19;;;21.70
72405;BMP280;60395;52.020;113.548;2022-07-03T15:18:50;91599.72;;;21.63
72405;BMP280;60395;52.020;113.548;2022-07-03T15:21:54;91594.56;;;21.52
72405;BMP280;60395;52.020;113.548;2022-07-03T15:24:58;91605.88;;;21.36
72405;BMP280;60395;52.020;113.548;2022-07-03T15:28:02;91605.22;;;21.18
72405;BMP280;60395;52.020;113.548;2022-07-03T15:31:05;91594.53;;;21.01
72405;BMP280;60395;52.020;113.548;2022-07-03T15:34:09;91582.28;;;20.95
72405;BMP280;60395;52.020;113.548;2022-07-03T15:37:36;91578.81;;;20.97
72405;BMP280;60395;52.020;113.548;2022-07-03T15:44:00;91567.84;;;21.18
72405;BMP280;60395;52.020;113.548;2022-07-03T15:50:15;91577.59;;;21.39
72405;BMP280;60395;52.020;113.548;2022-07-03T15:53:28;91566.28;;;21.47
72405;BMP280;60395;52.020;113.548;2022-07-03T15:56:34;91563.28;;;21.51
72405;BMP280;60395;52.020;113.548;2022-07-03T15:59:39;91555.91;;;21.51
72405;BMP280;60395;52.020;113.548;2022-07-03T16:03:00;91560.31;;;21.55
72405;BMP280;60395;52.020;113.548;2022-07-03T16:06:05;91549.78;;;21.53
72405;BMP280;60395;52.020;113.548;2022-07-03T16:09:09;91557.50;;;21.48
72405;BMP280;60395;52.020;113.548;2022-07-03T16:12:14;91564.41;;;21.37
72405;BMP280;60395;52.020;113.548;2022-07-03T16:15:29;91574.78;;;21.32
72405;BMP280;60395;52.020;113.548;2022-07-03T16:18:33;91584.38;;;21.21
72405;BMP280;60395;52.020;113.548;2022-07-03T16:21:36;91582.00;;;21.17
72405;BMP280;60395;52.020;113.548;2022-07-03T16:24:41;91577.09;;;20.93
72405;BMP280;60395;52.020;113.548;2022-07-03T16:27:44;91572.69;;;20.81
72405;BMP280;60395;52.020;113.548;2022-07-03T16:30:49;91564.84;;;20.88
72405;BMP280;60395;52.020;113.548;2022-07-03T16:34:03;91571.94;;;21.00
72405;BMP280;60395;52.020;113.548;2022-07-03T16:37:08;91579.94;;;20.91
72405;BMP280;60395;52.020;113.548;2022-07-03T16:40:11;91575.97;;;20.90
72405;BMP280;60395;52.020;113.548;2022-07-03T16:43:17;91572.00;;;20.64
72405;BMP280;60395;52.020;113.548;2022-07-03T16:46:24;91571.50;;;20.44
72405;BMP280;60395;52.020;113.548;2022-07-03T16:49:34;91574.00;;;20.46
72405;BMP280;60395;52.020;113.548;2022-07-03T16:52:37;91573.13;;;20.67
72405;BMP280;60395;52.020;113.548;2022-07-03T16:55:42;91568.63;;;20.91
72405;BMP280;60395;52.020;113.548;2022-07-03T16:58:46;91566.91;;;20.96
72405;BMP280;60395;52.020;113.548;2022-07-03T17:01:50;91572.72;;;20.98
72405;BMP280;60395;52.020;113.548;2022-07-03T17:04:56;91574.28;;;21.04
72405;BMP280;60395;52.020;113.548;2022-07-03T17:07:59;91569.41;;;21.07
72405;BMP280;60395;52.020;113.548;2022-07-03T17:11:09;91559.53;;;21.05
72405;BMP280;60395;52.020;113.548;2022-07-03T17:14:13;91559.69;;;21.12
72405;BMP280;60395;52.020;113.548;2022-07-03T17:17:16;91558.88;;;21.13
72405;BMP280;60395;52.020;113.548;2022-07-03T17:20:22;91555.75;;;21.11
72405;BMP280;60395;52.020;113.548;2022-07-03T17:23:27;91558.88;;;20.96
72405;BMP280;60395;52.020;113.548;2022-07-03T17:26:34;91560.91;;;20.87
72405;BMP280;60395;52.020;113.548;2022-07-03T17:29:53;91555.44;;;20.89
72405;BMP280;60395;52.020;113.548;2022-07-03T17:33:02;91554.97;;;20.95
72405;BMP280;60395;52.020;113.548;2022-07-03T17:36:08;91560.13;;;20.97
72405;BMP280;60395;52.020;113.548;2022-07-03T17:39:17;91561.56;;;20.96
72405;BMP280;60395;52.020;113.548;2022-07-03T17:42:22;91565.47;;;20.88
72405;BMP280;60395;52.020;113.548;2022-07-03T17:45:26;91572.66;;;20.73
72405;BMP280;60395;52.020;113.548;2022-07-03T17:48:32;91569.06;;;20.68
72405;BMP280;60395;52.020;113.548;2022-07-03T17:51:35;91571.44;;;20.72
72405;BMP280;60395;52.020;113.548;2022-07-03T17:54:40;91571.25;;;20.74
72405;BMP280;60395;52.020;113.548;2022-07-03T17:57:44;91589.91;;;20.74
72405;BMP280;60395;52.020;113.548;2022-07-03T18:00:47;91588.03;;;20.72
72405;BMP280;60395;52.020;113.548;2022-07-03T18:03:50;91590.41;;;20.68
72405;BMP280;60395;52.020;113.548;2022-07-03T18:06:54;91592.25;;;20.61
72405;BMP280;60395;52.020;113.548;2022-07-03T18:10:01;91594.75;;;20.54
72405;BMP280;60395;52.020;113.548;2022-07-03T18:13:16;91598.03;;;20.55
72405;BMP280;60395;52.020;113.548;2022-07-03T18:16:23;91600.22;;;20.52
72405;BMP280;60395;52.020;113.548;2022-07-03T18:19:29;91609.75;;;20.41
72405;BMP280;60395;52.020;113.548;2022-07-03T18:22:33;91610.03;;;20.28
72405;BMP280;60395;52.020;113.548;2022-07-03T18:25:43;91611.09;;;20.31
72405;BMP280;60395;52.020;113.548;2022-07-03T18:28:46;91616.34;;;20.42
72405;BMP280;60395;52.020;113.548;2022-07-03T18:31:50;91607.44;;;20.45
72405;BMP280;60395;52.020;113.548;2022-07-03T18:34:55;91603.19;;;20.48
72405;BMP280;60395;52.020;113.548;2022-07-03T18:37:59;91607.06;;;20.41
72405;BMP280;60395;52.020;113.548;2022-07-03T18:41:02;91598.16;;;20.44
72405;BMP280;60395;52.020;113.548;2022-07-03T18:44:05;91590.97;;;20.60
72405;BMP280;60395;52.020;113.548;2022-07-03T18:47:09;91594.34;;;20.86
72405;BMP280;60395;52.020;113.548;2022-07-03T18:50:12;91587.78;;;20.93
72405;BMP280;60395;52.020;113.548;2022-07-03T18:53:54;91580.69;;;20.90
72405;BMP280;60395;52.020;113.548;2022-07-03T18:57:06;91568.28;;;20.86